ZRH weather

Z├╝rich Airport
Zurich, Canton of Zurich, Switzerland

Public forecast

Using degrees Celsius for public forecast. Weather courtesy of forecast.io.

METAR (pilot weather report)

Retrieved 2018/06/22 22:20 UTC (0 seconds ago):

LSZH 222220Z 36003KT 320V030 9999 BKN060 13/05 Q1026 NOSIG

TAF (pilot weather forecast)

Retrieved 2018/06/22 21:36 UTC (35 minutes ago):

TAF LSZH 222025Z 2221/2403 34006KT 9999 SCT060 TX22/2315Z TN06/2304Z BECMG 2221/2223 VRB03KT CAVOK BECMG 2308/2311 9999 FEW050 TEMPO 2308/2320 03007KT